Time;durP1;ratioP1;P1;durP2;ratioP2;P2;SDS_P1;SDS_P2;PMS_P1;PMS_P2;Temp;Humidity;BMP_temperature;BMP_pressure;BME280_temperature;BME280_humidity;BME280_pressure;Samples;Min_cycle;Max_cycle;Signal;HPM_P1;HPM_P2
2023/11/02 00:02:36;;;;;;;1.30;1.00;;;;;;;19.11;61.91;97558.43;103867;1277;75223;-39
2023/11/02 00:05:03;;;;;;;1.30;1.20;;;;;;;19.11;61.87;97556.17;103862;1280;66033;-39
2023/11/02 00:07:30;;;;;;;1.10;1.00;;;;;;;19.11;61.84;97555.63;104019;1277;73204;-38
2023/11/02 00:09:58;;;;;;;1.10;1.00;;;;;;;19.10;61.74;97557.33;103903;1280;62072;-39
2023/11/02 00:12:28;;;;;;;0.90;0.80;;;;;;;19.10;61.88;97556.86;103713;1278;62170;-39
2023/11/02 00:14:56;;;;;;;0.90;0.90;;;;;;;19.10;61.77;97559.65;103765;1280;75469;-38
2023/11/02 00:17:35;;;;;;;1.80;1.20;;;;;;;19.10;61.70;97554.99;103874;1280;66013;-39
2023/11/02 00:20:07;;;;;;;1.90;1.40;;;;;;;19.10;61.68;97557.33;103813;1278;72662;-40
2023/11/02 00:22:36;;;;;;;1.30;1.00;;;;;;;19.09;61.83;97557.68;103814;1276;62136;-39
2023/11/02 00:25:04;;;;;;;1.50;1.20;;;;;;;19.09;61.74;97558.62;103710;1277;62188;-39
2023/11/02 00:27:34;;;;;;;1.60;1.10;;;;;;;19.09;61.75;97558.94;103711;1276;74154;-39
2023/11/02 00:30:01;;;;;;;1.30;1.00;;;;;;;19.08;61.67;97563.48;103771;1280;66153;-38
2023/11/02 00:32:28;;;;;;;1.00;0.90;;;;;;;19.08;61.75;97563.40;103932;1277;72516;-38
2023/11/02 00:34:54;;;;;;;1.40;1.10;;;;;;;19.08;61.72;97565.41;103766;1280;62078;-38
2023/11/02 00:37:21;;;;;;;1.50;1.20;;;;;;;19.07;61.71;97560.52;103877;1277;62289;-38
2023/11/02 00:39:48;;;;;;;1.20;1.10;;;;;;;19.07;61.71;97561.06;103865;1280;75431;-38
2023/11/02 00:42:15;;;;;;;1.50;1.10;;;;;;;19.07;61.72;97557.42;103757;1282;65956;-40
2023/11/02 00:44:46;;;;;;;1.50;1.30;;;;;;;19.07;61.71;97562.46;106259;1276;72672;-39
2023/11/02 00:47:15;;;;;;;1.30;1.10;;;;;;;19.06;61.65;97557.55;105768;1280;62201;-40
2023/11/02 00:49:41;;;;;;;1.40;1.00;;;;;;;19.07;61.61;97557.71;104004;1277;62094;-40
2023/11/02 00:52:08;;;;;;;1.20;1.00;;;;;;;19.07;61.66;97559.36;104077;1280;74331;-42
2023/11/02 00:54:44;;;;;;;1.60;1.10;;;;;;;19.07;61.64;97553.77;103957;1280;65548;-40
2023/11/02 00:57:11;;;;;;;1.50;1.20;;;;;;;19.06;61.56;97555.55;103982;1277;72699;-39
2023/11/02 00:59:38;;;;;;;1.50;1.20;;;;;;;19.06;61.48;97552.84;103942;1276;62136;-39
2023/11/02 01:02:05;;;;;;;1.20;1.10;;;;;;;19.05;61.61;97554.13;103984;1276;62086;-39
2023/11/02 01:04:33;;;;;;;1.30;1.20;;;;;;;19.06;61.50;97553.21;103949;1277;75870;-39
2023/11/02 01:07:00;;;;;;;1.60;1.10;;;;;;;19.06;61.51;97548.08;104000;1276;65599;-38
2023/11/02 01:09:49;;;;;;;1.50;1.20;;;;;;;19.05;61.55;97544.19;103859;1277;72526;-38
2023/11/02 01:12:28;;;;;;;1.30;1.10;;;;;;;19.05;61.59;97546.74;104002;1282;62099;-38
2023/11/02 01:14:55;;;;;;;1.50;1.40;;;;;;;19.05;61.47;97546.05;103939;1277;62092;-39
2023/11/02 01:17:33;;;;;;;1.50;1.20;;;;;;;19.04;61.47;97545.16;103867;1277;75523;-38
2023/11/02 01:20:10;;;;;;;1.30;1.10;;;;;;;19.03;61.39;97545.02;103951;1282;65452;-40
2023/11/02 01:22:52;;;;;;;1.30;1.20;;;;;;;19.03;61.45;97541.50;103792;1277;72440;-39
2023/11/02 01:25:19;;;;;;;1.40;1.20;;;;;;;19.03;61.52;97541.27;103678;1276;62085;-39
2023/11/02 01:27:49;;;;;;;1.30;1.20;;;;;;;19.02;61.48;97538.15;103671;1276;62161;-39
2023/11/02 01:30:22;;;;;;;1.50;1.20;;;;;;;19.02;61.48;97538.86;103616;1277;75396;-38
2023/11/02 01:32:48;;;;;;;1.50;1.30;;;;;;;19.02;61.44;97537.39;103737;1283;64814;-38
2023/11/02 01:35:41;;;;;;;1.50;1.40;;;;;;;19.02;61.44;97538.54;103668;1277;72450;-38
2023/11/02 01:38:08;;;;;;;1.50;1.30;;;;;;;19.02;61.44;97535.66;103745;1283;62091;-39
2023/11/02 01:40:42;;;;;;;1.40;1.20;;;;;;;19.01;61.40;97534.55;103663;1277;62200;-38
2023/11/02 01:43:08;;;;;;;1.40;1.30;;;;;;;19.01;61.32;97532.46;103793;1283;75255;-39
2023/11/02 01:45:36;;;;;;;1.40;1.20;;;;;;;19.01;61.42;97528.66;103737;1280;65776;-39
2023/11/02 01:48:06;;;;;;;1.40;1.30;;;;;;;19.01;61.51;97527.42;103740;1281;71390;-38
2023/11/02 01:50:47;;;;;;;1.30;1.20;;;;;;;19.00;61.42;97526.33;104020;1277;62128;-39
2023/11/02 01:53:18;;;;;;;1.70;1.50;;;;;;;19.00;61.44;97528.12;103713;1281;62113;-38
2023/11/02 01:56:04;;;;;;;1.10;1.00;;;;;;;18.99;61.38;97525.76;103779;1281;75468;-39
2023/11/02 01:58:41;;;;;;;1.30;1.00;;;;;;;18.99;61.44;97521.56;103735;1283;65396;-39
2023/11/02 02:01:23;;;;;;;1.40;1.30;;;;;;;18.99;61.38;97523.02;103947;1283;72564;-39
2023/11/02 02:04:16;;;;;;;1.40;1.20;;;;;;;18.98;61.34;97521.16;103824;1279;62267;-39
2023/11/02 02:06:56;;;;;;;1.10;1.00;;;;;;;18.98;61.33;97518.36;103729;1277;62151;-39
2023/11/02 02:09:48;;;;;;;3.20;1.40;;;;;;;18.97;61.39;97516.27;103772;1279;75174;-39
2023/11/02 02:12:46;;;;;;;1.50;1.30;;;;;;;18.96;61.38;97516.70;103765;1277;65993;-39
2023/11/02 02:15:25;;;;;;;1.60;1.20;;;;;;;18.96;61.29;97509.65;103893;1277;72539;-39
2023/11/02 02:18:03;;;;;;;2.00;1.40;;;;;;;18.96;61.30;97510.25;103796;1281;62174;-39
2023/11/02 02:20:34;;;;;;;1.30;1.20;;;;;;;18.95;61.25;97513.35;104023;1277;62182;-39
2023/11/02 02:23:10;;;;;;;1.20;1.10;;;;;;;18.95;61.31;97511.41;103492;1278;75226;-39
2023/11/02 02:25:52;;;;;;;1.00;0.90;;;;;;;18.95;61.26;97511.48;103798;1282;65966;-39
2023/11/02 02:28:46;;;;;;;1.20;1.10;;;;;;;18.94;61.33;97509.14;103757;1277;72485;-38
2023/11/02 02:31:22;;;;;;;1.70;1.20;;;;;;;18.94;61.31;97510.30;103883;1281;62143;-38
2023/11/02 02:34:11;;;;;;;1.40;1.30;;;;;;;18.94;61.29;97508.67;103695;1277;62111;-39
2023/11/02 02:37:08;;;;;;;1.40;1.30;;;;;;;18.94;61.24;97506.12;103746;1282;75523;-39
2023/11/02 02:39:38;;;;;;;1.40;1.20;;;;;;;18.93;61.26;97507.66;103632;1277;65643;-39
2023/11/02 02:42:06;;;;;;;1.20;1.10;;;;;;;18.94;61.34;97509.20;103947;1280;71165;-39
2023/11/02 02:44:33;;;;;;;2.00;1.40;;;;;;;18.93;61.27;97508.80;103999;1283;62005;-39
2023/11/02 02:47:01;;;;;;;1.30;1.20;;;;;;;18.93;61.17;97504.79;103808;1277;62212;-39
2023/11/02 02:49:38;;;;;;;1.70;1.50;;;;;;;18.92;61.22;97506.23;103826;1278;75533;-39
2023/11/02 02:52:07;;;;;;;1.80;1.50;;;;;;;18.92;61.13;97509.02;104007;1277;66791;-39
2023/11/02 02:54:36;;;;;;;1.30;1.20;;;;;;;18.91;61.19;97504.27;103972;1277;72544;-39
2023/11/02 02:57:02;;;;;;;1.30;1.20;;;;;;;18.91;61.21;97498.84;103749;1282;62099;-39
2023/11/02 02:59:29;;;;;;;1.30;1.20;;;;;;;18.92;61.26;97496.66;103757;1278;62184;-38
2023/11/02 03:01:55;;;;;;;1.50;1.30;;;;;;;18.91;61.20;97497.99;103547;1279;75275;-39
2023/11/02 03:04:22;;;;;;;1.40;1.30;;;;;;;18.91;61.19;97496.97;103804;1277;65774;-38
2023/11/02 03:06:57;;;;;;;1.60;1.50;;;;;;;18.91;61.09;97494.27;103704;1277;72446;-37
2023/11/02 03:09:25;;;;;;;1.70;1.30;;;;;;;18.91;61.08;97493.33;103989;1281;62026;-39
2023/11/02 03:11:59;;;;;;;1.70;1.50;;;;;;;18.90;61.20;97490.06;103834;1283;62187;-39
2023/11/02 03:14:26;;;;;;;1.40;1.30;;;;;;;18.90;61.09;97495.25;103727;1277;75245;-39
2023/11/02 03:16:53;;;;;;;1.40;1.20;;;;;;;18.90;61.10;97496.17;103810;1283;65809;-39
2023/11/02 03:19:36;;;;;;;1.20;1.10;;;;;;;18.89;61.08;97494.61;103614;1277;72435;-39
2023/11/02 03:22:03;;;;;;;1.40;1.30;;;;;;;18.89;61.13;97497.16;103737;1281;62085;-40
2023/11/02 03:24:37;;;;;;;1.20;1.10;;;;;;;18.90;61.09;97493.91;106478;1277;62091;-41
2023/11/02 03:27:06;;;;;;;1.50;1.40;;;;;;;18.88;61.13;97495.05;104340;1277;75276;-38
2023/11/02 03:29:41;;;;;;;1.50;1.40;;;;;;;18.89;61.07;97495.15;103991;1281;66116;-40
2023/11/02 03:32:10;;;;;;;1.80;1.30;;;;;;;18.89;61.12;97497.02;103949;1277;72397;-40
2023/11/02 03:34:52;;;;;;;1.40;1.30;;;;;;;18.89;61.02;97498.16;103971;1281;62181;-39
2023/11/02 03:37:32;;;;;;;1.70;1.50;;;;;;;18.89;61.14;97497.54;103952;1277;62181;-40
2023/11/02 03:40:11;;;;;;;1.50;1.40;;;;;;;18.88;60.98;97494.67;103958;1277;75165;-40
2023/11/02 03:42:56;;;;;;;1.40;1.20;;;;;;;18.88;61.02;97493.42;103722;1280;66518;-40
2023/11/02 03:45:23;;;;;;;1.80;1.50;;;;;;;18.88;61.02;97491.72;103624;1281;73243;-39
2023/11/02 03:48:17;;;;;;;1.30;1.10;;;;;;;18.88;60.94;97493.34;103585;1277;62050;-39
2023/11/02 03:51:06;;;;;;;1.60;1.30;;;;;;;18.87;60.93;97493.10;103746;1277;62089;-40
2023/11/02 03:54:11;;;;;;;1.30;1.10;;;;;;;18.87;61.04;97492.31;103725;1281;75383;-39
2023/11/02 03:57:16;;;;;;;1.60;1.30;;;;;;;18.86;60.86;97494.65;103837;1281;65972;-39
2023/11/02 03:59:54;;;;;;;2.50;1.60;;;;;;;18.86;60.84;97492.77;103458;1277;72688;-39
2023/11/02 04:02:28;;;;;;;1.60;1.50;;;;;;;18.84;61.04;97487.30;103940;1282;62075;-39
2023/11/02 04:05:05;;;;;;;1.50;1.40;;;;;;;18.84;60.91;97487.52;103981;1277;62171;-39
2023/11/02 04:07:39;;;;;;;1.90;1.40;;;;;;;18.84;60.92;97481.16;103884;1277;75478;-38
2023/11/02 04:10:08;;;;;;;1.40;1.20;;;;;;;18.85;60.89;97479.31;103725;1277;66057;-39
2023/11/02 04:13:10;;;;;;;1.40;1.30;;;;;;;18.84;60.86;97475.20;103732;1277;72601;-39
2023/11/02 04:15:36;;;;;;;1.90;1.40;;;;;;;18.84;60.95;97474.95;103444;1282;62063;-38
2023/11/02 04:18:03;;;;;;;1.80;1.40;;;;;;;18.84;60.90;97474.27;103656;1282;62187;-38
2023/11/02 04:20:30;;;;;;;1.50;1.30;;;;;;;18.84;60.95;97471.16;104084;1278;75432;-39
2023/11/02 04:22:57;;;;;;;1.80;1.30;;;;;;;18.84;60.89;97471.09;103734;1283;65668;-38
2023/11/02 04:25:24;;;;;;;1.70;1.50;;;;;;;18.84;60.86;97468.84;104193;1277;72652;-40
2023/11/02 04:27:51;;;;;;;2.10;1.40;;;;;;;18.84;60.78;97473.11;103672;1277;62095;-39
2023/11/02 04:30:18;;;;;;;1.70;1.50;;;;;;;18.83;60.84;97477.20;103751;1277;62164;-39
2023/11/02 04:32:45;;;;;;;1.50;1.20;;;;;;;18.83;60.82;97477.51;103705;1277;75470;-39
2023/11/02 04:35:12;;;;;;;1.30;1.20;;;;;;;18.83;60.80;97482.69;103767;1282;66214;-38
2023/11/02 04:37:38;;;;;;;1.60;1.30;;;;;;;18.83;60.84;97482.70;103895;1283;72962;-39
2023/11/02 04:40:07;;;;;;;1.70;1.40;;;;;;;18.82;60.78;97484.69;103853;1283;62081;-39
2023/11/02 04:42:34;;;;;;;1.30;1.20;;;;;;;18.82;60.67;97483.67;103708;1279;61999;-38
2023/11/02 04:45:01;;;;;;;1.70;1.60;;;;;;;18.82;60.82;97486.54;103733;1278;75433;-38
2023/11/02 04:47:28;;;;;;;1.40;1.20;;;;;;;18.82;60.82;97483.83;103582;1283;66166;-39
2023/11/02 04:49:54;;;;;;;1.30;1.10;;;;;;;18.81;60.79;97485.83;103667;1277;72580;-38
2023/11/02 04:52:22;;;;;;;1.40;1.20;;;;;;;18.81;60.84;97487.70;103784;1281;62055;-38
2023/11/02 04:54:49;;;;;;;1.80;1.30;;;;;;;18.81;60.82;97484.05;103808;1277;62745;-39
2023/11/02 04:57:16;;;;;;;2.00;1.50;;;;;;;18.80;60.86;97483.56;103802;1277;75232;-39
2023/11/02 04:59:42;;;;;;;1.50;1.40;;;;;;;18.80;60.80;97481.73;103732;1282;66278;-39
2023/11/02 05:02:10;;;;;;;1.50;1.30;;;;;;;18.80;60.73;97480.15;103737;1277;72912;-39
2023/11/02 05:04:37;;;;;;;1.40;1.20;;;;;;;18.79;60.74;97476.66;103659;1280;62178;-39
2023/11/02 05:07:04;;;;;;;1.50;1.30;;;;;;;18.79;60.68;97478.98;103705;1277;62044;-39
2023/11/02 05:09:31;;;;;;;1.80;1.40;;;;;;;18.78;60.74;97477.55;103376;1282;75936;-39
2023/11/02 05:11:58;;;;;;;1.90;1.20;;;;;;;18.79;60.77;97483.77;103717;1277;65742;-38
2023/11/02 05:14:25;;;;;;;1.50;1.40;;;;;;;18.78;60.67;97486.02;103674;1277;72668;-39
2023/11/02 05:16:52;;;;;;;2.10;1.40;;;;;;;18.78;60.74;97484.13;103517;1281;62005;-39
2023/11/02 05:19:19;;;;;;;2.50;1.40;;;;;;;18.77;60.71;97484.05;103417;1277;62218;-40
2023/11/02 05:21:46;;;;;;;1.50;1.30;;;;;;;18.77;60.74;97491.48;103698;1283;74304;-39
2023/11/02 05:24:14;;;;;;;1.40;1.30;;;;;;;18.77;60.71;97492.48;103754;1281;65957;-39
2023/11/02 05:26:41;;;;;;;1.40;1.30;;;;;;;18.77;60.72;97494.11;103892;1277;72460;-39
2023/11/02 05:29:08;;;;;;;1.80;1.40;;;;;;;18.77;60.63;97494.50;103734;1277;62012;-38
2023/11/02 05:31:36;;;;;;;1.70;1.50;;;;;;;18.77;60.65;97494.34;103702;1277;62123;-38
2023/11/02 05:34:03;;;;;;;1.80;1.60;;;;;;;18.77;60.61;97496.27;103698;1278;75249;-39
2023/11/02 05:36:30;;;;;;;1.90;1.30;;;;;;;18.77;60.66;97495.98;103821;1277;65519;-40
2023/11/02 05:38:57;;;;;;;1.50;1.40;;;;;;;18.77;60.67;97499.92;103736;1277;72540;-40
2023/11/02 05:41:23;;;;;;;1.30;1.20;;;;;;;18.76;60.68;97499.92;103933;1282;62077;-40
2023/11/02 05:43:50;;;;;;;1.40;1.30;;;;;;;18.77;60.66;97502.02;103962;1277;62186;-40
2023/11/02 05:46:17;;;;;;;1.30;1.20;;;;;;;18.76;60.59;97505.02;103947;1282;75290;-40
2023/11/02 05:48:43;;;;;;;1.30;1.20;;;;;;;18.76;60.62;97509.05;103750;1279;65905;-40
2023/11/02 05:51:10;;;;;;;1.70;1.50;;;;;;;18.77;60.61;97509.61;103853;1282;72674;-39
2023/11/02 05:53:37;;;;;;;1.70;1.30;;;;;;;18.76;60.60;97507.59;103672;1283;61999;-39
2023/11/02 05:56:04;;;;;;;1.80;1.40;;;;;;;18.76;60.51;97511.23;103737;1277;62126;-39
2023/11/02 05:58:31;;;;;;;1.40;1.30;;;;;;;18.75;60.51;97510.59;103759;1277;76490;-40
2023/11/02 06:00:58;;;;;;;1.60;1.30;;;;;;;18.76;60.40;97512.55;103817;1277;66130;-39
2023/11/02 06:03:26;;;;;;;1.40;1.30;;;;;;;18.76;60.55;97509.82;104151;1277;72638;-40
2023/11/02 06:05:53;;;;;;;1.40;1.30;;;;;;;18.75;60.49;97509.02;105735;1279;62210;-38
2023/11/02 06:08:20;;;;;;;1.50;1.20;;;;;;;18.76;60.55;97504.40;103856;1277;62666;-39
2023/11/02 06:10:47;;;;;;;1.50;1.40;;;;;;;18.76;60.42;97502.23;103732;1281;75998;-40
2023/11/02 06:13:14;;;;;;;1.40;1.30;;;;;;;18.77;60.46;97495.52;103711;1281;65076;-39
2023/11/02 06:15:42;;;;;;;1.70;1.30;;;;;;;18.77;60.50;97495.34;103626;1277;72459;-40
2023/11/02 06:18:32;;;;;;;1.30;1.20;;;;;;;18.77;60.53;97495.65;103785;1270;61986;31
2023/11/02 06:20:59;;;;;;;1.50;1.20;;;;;;;18.77;60.59;97498.30;103568;1280;62200;-38
2023/11/02 06:23:26;;;;;;;2.10;1.40;;;;;;;18.78;60.49;97501.20;103288;1279;74598;-35
2023/11/02 06:25:53;;;;;;;1.40;1.30;;;;;;;18.79;60.76;97497.73;103461;1284;67410;-43
2023/11/02 06:28:20;;;;;;;2.10;1.50;;;;;;;18.82;60.81;97493.52;103732;1280;72678;-41
2023/11/02 06:30:46;;;;;;;1.90;1.60;;;;;;;18.85;60.97;97495.62;103807;1282;62094;-38
2023/11/02 06:33:26;;;;;;;4.30;1.80;;;;;;;18.91;61.32;97492.16;103790;1278;62114;-38
2023/11/02 06:35:54;;;;;;;4.00;1.70;;;;;;;18.97;61.44;97491.36;103761;1282;75438;-40
2023/11/02 06:38:21;;;;;;;3.30;1.60;;;;;;;19.04;61.66;97490.50;103519;1279;66740;-39
2023/11/02 06:40:50;;;;;;;2.10;1.60;;;;;;;19.10;61.63;97488.52;103471;1280;73041;-39
2023/11/02 06:43:17;;;;;;;2.70;1.80;;;;;;;19.16;61.61;97491.90;103544;1280;63386;-38
2023/11/02 06:45:44;;;;;;;2.70;1.60;;;;;;;19.21;61.54;97489.74;103696;1280;62197;-38
2023/11/02 06:48:11;;;;;;;2.70;1.40;;;;;;;19.25;61.50;97494.86;103625;1279;75421;-38
2023/11/02 06:50:38;;;;;;;4.90;1.50;;;;;;;19.28;61.57;97496.57;103611;1280;67453;-40
2023/11/02 06:53:05;;;;;;;4.10;1.60;;;;;;;19.31;61.60;97500.35;103526;1280;72685;-41
2023/11/02 06:55:32;;;;;;;2.80;1.40;;;;;;;19.33;61.72;97498.45;103589;1282;62092;-38
2023/11/02 06:57:58;;;;;;;3.10;1.60;;;;;;;19.35;61.84;97498.36;103603;1280;62236;-39
2023/11/02 07:00:25;;;;;;;3.40;1.70;;;;;;;19.37;61.60;97499.17;104039;1280;75321;-40
2023/11/02 07:02:52;;;;;;;2.50;1.60;;;;;;;19.38;61.64;97493.92;103666;1282;66305;-39
2023/11/02 07:05:19;;;;;;;2.40;1.70;;;;;;;19.38;61.72;97496.73;103538;1279;73213;-40
2023/11/02 07:07:50;;;;;;;2.10;1.50;;;;;;;19.40;61.79;97501.24;103485;1280;62159;-40
2023/11/02 07:10:17;;;;;;;2.90;1.90;;;;;;;19.41;61.91;97504.20;103249;1285;62101;-39
2023/11/02 07:12:44;;;;;;;3.90;1.60;;;;;;;19.43;62.01;97507.13;103413;1280;75403;-39
2023/11/02 07:15:11;;;;;;;2.40;1.60;;;;;;;19.44;61.83;97507.70;104609;1279;67372;-38
2023/11/02 07:17:39;;;;;;;2.30;1.70;;;;;;;19.45;61.87;97508.34;103565;1280;71515;-38
2023/11/02 07:20:07;;;;;;;3.10;1.60;;;;;;;19.45;61.82;97503.67;103574;1282;62140;-36
2023/11/02 07:22:34;;;;;;;2.10;1.70;;;;;;;19.44;61.81;97502.48;104285;1279;62300;-37
2023/11/02 07:25:01;;;;;;;2.50;1.50;;;;;;;19.42;61.83;97504.00;103594;1282;74363;-39
2023/11/02 07:27:30;;;;;;;2.50;1.70;;;;;;;19.41;61.95;97500.19;103306;1280;65179;-39
2023/11/02 07:29:57;;;;;;;4.20;1.80;;;;;;;19.41;61.90;97502.42;103563;1280;73746;-38
2023/11/02 07:32:25;;;;;;;4.30;1.90;;;;;;;19.42;61.83;97495.64;103626;1282;62013;-37
2023/11/02 07:34:52;;;;;;;12.40;2.10;;;;;;;19.44;61.93;97497.83;104355;1279;62117;-39
2023/11/02 07:37:19;;;;;;;3.40;1.80;;;;;;;19.46;61.81;97500.98;103379;1282;75419;-39
2023/11/02 07:39:45;;;;;;;5.60;1.90;;;;;;;19.46;61.93;97495.87;103377;1280;66697;-41
2023/11/02 07:42:12;;;;;;;4.00;2.00;;;;;;;19.48;61.97;97494.73;103739;1280;72430;-38
2023/11/02 07:44:42;;;;;;;3.60;1.80;;;;;;;19.50;61.86;97491.84;103439;1280;62107;-38
2023/11/02 07:47:09;;;;;;;3.10;1.80;;;;;;;19.50;61.84;97487.56;104331;1279;62119;-39
2023/11/02 07:49:38;;;;;;;6.40;1.90;;;;;;;19.50;61.83;97490.81;103425;1282;75898;-39
2023/11/02 07:52:06;;;;;;;3.80;1.90;;;;;;;19.49;61.82;97494.43;103505;1282;65068;-38
2023/11/02 07:54:39;;;;;;;2.50;1.90;;;;;;;19.50;61.70;97494.22;103606;1280;73807;-39
2023/11/02 07:57:10;;;;;;;3.90;1.80;;;;;;;19.50;61.85;97493.52;103403;1283;62082;-39
2023/11/02 07:59:37;;;;;;;2.40;1.80;;;;;;;19.50;61.82;97491.11;103648;1280;62144;-37
2023/11/02 08:02:05;;;;;;;3.40;1.90;;;;;;;19.50;61.74;97494.79;103534;1280;76315;-41
2023/11/02 08:04:32;;;;;;;3.60;1.90;;;;;;;19.51;61.76;97493.01;103705;1280;66625;-42
2023/11/02 08:06:58;;;;;;;3.90;1.60;;;;;;;19.52;61.72;97489.08;103447;1280;72397;-38
2023/11/02 08:09:25;;;;;;;3.30;1.80;;;;;;;19.53;61.78;97485.13;103496;1279;62552;-41
2023/11/02 08:11:52;;;;;;;2.50;1.80;;;;;;;19.53;61.80;97478.68;103582;1280;62114;-40
2023/11/02 08:14:19;;;;;;;2.30;1.60;;;;;;;19.54;61.64;97477.39;103451;1283;76393;-39
2023/11/02 08:16:47;;;;;;;2.50;1.70;;;;;;;19.54;61.52;97475.68;103390;1280;66912;-41
2023/11/02 08:19:14;;;;;;;4.50;2.00;;;;;;;19.55;61.72;97467.30;103671;1278;72501;-44
2023/11/02 08:21:42;;;;;;;7.40;2.10;;;;;;;19.56;61.76;97467.72;103681;1280;62726;-41
2023/11/02 08:24:11;;;;;;;4.80;1.80;;;;;;;19.57;61.66;97462.69;103413;1280;62171;-42
2023/11/02 08:26:38;;;;;;;7.90;2.00;;;;;;;19.58;61.67;97465.35;103730;1280;74640;-38
2023/11/02 08:29:04;;;;;;;6.30;1.80;;;;;;;19.60;62.04;97464.69;103410;1280;65637;-41
2023/11/02 08:31:32;;;;;;;6.20;2.00;;;;;;;19.62;62.30;97464.02;103176;1280;72585;-41
2023/11/02 08:34:02;;;;;;;5.60;1.70;;;;;;;19.64;62.40;97466.78;103478;1282;62092;-40
2023/11/02 08:36:34;;;;;;;3.80;1.90;;;;;;;19.67;62.48;97464.89;103672;1280;62174;-41
2023/11/02 08:39:01;;;;;;;3.20;1.80;;;;;;;19.69;62.57;97466.08;103576;1282;75766;-39
2023/11/02 08:41:32;;;;;;;4.30;2.10;;;;;;;19.71;62.71;97461.08;103688;1282;64948;-40
2023/11/02 08:44:00;;;;;;;4.50;1.80;;;;;;;19.73;62.61;97466.71;103726;1282;73856;-40
2023/11/02 08:46:27;;;;;;;2.70;1.80;;;;;;;19.75;62.47;97467.05;104172;1280;62086;-38
2023/11/02 08:48:54;;;;;;;3.30;2.10;;;;;;;19.78;62.36;97465.63;105701;1279;61960;-40
2023/11/02 08:51:23;;;;;;;4.00;1.70;;;;;;;19.80;62.44;97464.02;105350;1279;246157;-40
2023/11/02 08:53:50;;;;;;;4.30;2.00;;;;;;;19.82;62.16;97462.84;104991;1280;65044;-42
2023/11/02 08:56:17;;;;;;;5.40;2.30;;;;;;;19.85;61.87;97463.34;103811;1279;71497;-40
2023/11/02 08:58:51;;;;;;;3.30;2.10;;;;;;;19.88;61.57;97464.63;103589;1282;62104;-41
2023/11/02 09:01:20;;;;;;;5.00;2.50;;;;;;;19.89;60.68;97464.65;103652;1280;62117;-42
2023/11/02 09:03:47;;;;;;;3.70;2.20;;;;;;;19.91;59.95;97460.33;103540;1280;76163;-40
2023/11/02 09:06:14;;;;;;;4.30;2.30;;;;;;;19.92;59.43;97460.65;103472;1282;66240;-38
2023/11/02 09:08:41;;;;;;;3.00;2.10;;;;;;;19.92;59.53;97454.36;105436;1282;73136;-42
2023/11/02 09:11:08;;;;;;;6.20;2.50;;;;;;;19.91;59.59;97450.95;103423;1280;62101;-40
2023/11/02 09:13:34;;;;;;;3.70;2.40;;;;;;;19.92;59.49;97449.40;103485;1279;62079;-41
2023/11/02 09:16:04;;;;;;;4.90;2.00;;;;;;;19.91;59.52;97444.35;103553;1279;76113;-42
2023/11/02 09:18:31;;;;;;;5.60;2.20;;;;;;;19.92;59.74;97438.99;103631;1282;64003;-39
2023/11/02 09:20:57;;;;;;;5.40;2.30;;;;;;;19.92;59.93;97438.70;103743;1280;71954;-40
2023/11/02 09:23:26;;;;;;;6.20;2.20;;;;;;;19.93;59.87;97438.39;103571;1280;62053;-41
2023/11/02 09:25:53;;;;;;;2.40;2.00;;;;;;;19.94;59.82;97435.84;103456;1278;62226;-39
2023/11/02 09:28:20;;;;;;;3.30;2.20;;;;;;;19.94;59.93;97433.98;103470;1282;75196;-45
2023/11/02 09:30:47;;;;;;;5.70;2.20;;;;;;;19.95;59.92;97431.67;103511;1282;67023;-44
2023/11/02 09:33:14;;;;;;;4.10;2.20;;;;;;;19.97;59.93;97433.33;103401;1280;72583;-40
2023/11/02 09:35:41;;;;;;;7.60;2.30;;;;;;;19.96;60.05;97423.38;103457;1280;62180;-41
2023/11/02 09:38:08;;;;;;;8.50;2.50;;;;;;;19.98;60.10;97421.85;103545;1280;62104;-40
2023/11/02 09:40:35;;;;;;;7.00;2.00;;;;;;;19.99;60.27;97414.17;103445;1282;75260;-42
2023/11/02 09:43:03;;;;;;;8.60;2.20;;;;;;;19.99;60.21;97406.35;103363;1280;65472;-42
2023/11/02 09:45:30;;;;;;;9.50;2.50;;;;;;;20.01;60.42;97399.69;103970;1279;71514;-38
2023/11/02 09:47:58;;;;;;;3.20;1.90;;;;;;;20.03;60.58;97399.10;103209;1285;62102;-44
2023/11/02 09:50:28;;;;;;;4.80;2.60;;;;;;;20.05;60.58;97393.92;103789;1279;62159;-40
2023/11/02 09:52:55;;;;;;;4.40;1.80;;;;;;;20.06;60.63;97389.36;103415;1280;75358;-41
2023/11/02 09:55:22;;;;;;;2.90;1.90;;;;;;;20.08;60.71;97382.79;104045;1282;65986;-38
2023/11/02 09:57:49;;;;;;;4.10;2.20;;;;;;;20.10;60.73;97374.05;103573;1280;72534;-39
2023/11/02 10:00:20;;;;;;;4.60;2.00;;;;;;;20.11;60.91;97374.06;103685;1282;62105;-39
2023/11/02 10:02:47;;;;;;;5.60;2.10;;;;;;;20.13;61.01;97371.21;103591;1280;62002;-42
2023/11/02 10:05:16;;;;;;;3.20;1.80;;;;;;;20.14;61.13;97371.85;103554;1279;75327;-43
2023/11/02 10:07:43;;;;;;;7.60;2.10;;;;;;;20.16;61.06;97369.33;103562;1282;67145;-39
2023/11/02 10:10:10;;;;;;;3.30;1.90;;;;;;;20.17;60.92;97368.55;103587;1280;72601;-36
2023/11/02 10:12:38;;;;;;;2.90;1.80;;;;;;;20.17;60.75;97365.38;103341;1279;62163;-39
2023/11/02 10:15:07;;;;;;;4.00;1.70;;;;;;;20.18;60.70;97361.52;103478;1284;62287;-41
2023/11/02 10:17:37;;;;;;;2.50;1.90;;;;;;;20.18;60.62;97358.79;103274;1282;76530;-40
2023/11/02 10:20:11;;;;;;;4.60;2.00;;;;;;;20.18;60.80;97349.00;103428;1280;67460;-41
2023/11/02 10:22:39;;;;;;;3.40;1.90;;;;;;;20.19;60.78;97343.86;104303;1279;73727;-42
2023/11/02 10:25:06;;;;;;;4.60;1.80;;;;;;;20.19;60.67;97336.04;103516;1280;62152;-37
2023/11/02 10:27:35;;;;;;;4.50;2.20;;;;;;;20.20;60.77;97331.71;103594;1280;62123;-41
2023/11/02 10:30:02;;;;;;;3.90;1.80;;;;;;;20.21;60.72;97332.57;103515;1282;76151;-42
2023/11/02 10:32:29;;;;;;;3.10;2.00;;;;;;;20.22;60.48;97326.28;103410;1282;67263;-44
2023/11/02 10:34:56;;;;;;;3.00;1.90;;;;;;;20.22;60.56;97324.59;102975;1280;72570;-40
2023/11/02 10:37:34;;;;;;;2.50;1.70;;;;;;;20.22;60.48;97323.73;103264;1280;62086;-40
2023/11/02 10:40:01;;;;;;;4.10;2.10;;;;;;;20.22;60.52;97311.09;103482;1282;62121;-42
2023/11/02 10:42:28;;;;;;;2.20;1.80;;;;;;;20.23;60.62;97308.46;103347;1282;75381;-42
2023/11/02 10:44:56;;;;;;;2.80;2.00;;;;;;;20.24;60.81;97308.48;103500;1280;66480;-40
2023/11/02 10:47:32;;;;;;;4.20;2.10;;;;;;;20.24;60.83;97304.44;103419;1282;72284;-40
2023/11/02 10:49:59;;;;;;;4.00;1.60;;;;;;;20.25;60.84;97299.48;103481;1282;62018;-39
2023/11/02 10:52:38;;;;;;;5.30;1.90;;;;;;;20.26;60.90;97301.75;103450;1282;62188;-36
2023/11/02 10:55:12;;;;;;;;;;;;;;;20.27;60.92;97298.02;103645;1280;76425;-37
2023/11/02 10:57:39;;;;;;;2.90;1.90;;;;;;;20.28;61.01;97300.52;104962;1282;66557;-36
2023/11/02 11:00:07;;;;;;;3.10;1.80;;;;;;;20.27;61.11;97298.27;103221;1280;72858;-39
2023/11/02 11:02:36;;;;;;;2.90;1.60;;;;;;;20.29;61.18;97298.35;103969;1282;60832;-36
2023/11/02 11:05:05;;;;;;;3.70;1.70;;;;;;;20.30;61.13;97292.08;103753;1280;62101;-38
2023/11/02 11:07:36;;;;;;;3.50;1.70;;;;;;;20.33;61.22;97289.24;103427;1280;76098;-40
2023/11/02 11:10:03;;;;;;;5.00;1.60;;;;;;;20.35;61.12;97284.66;105697;1279;66970;-38
2023/11/02 11:12:30;;;;;;;3.10;1.80;;;;;;;20.37;61.11;97281.45;107249;1278;73429;-36
2023/11/02 11:14:57;;;;;;;3.30;1.80;;;;;;;20.39;61.13;97279.06;105657;1279;63656;-41
2023/11/02 11:17:24;;;;;;;4.70;1.60;;;;;;;20.42;61.24;97277.55;103622;1282;62017;-39
2023/11/02 11:19:51;;;;;;;3.10;1.70;;;;;;;20.45;60.97;97274.77;103364;1280;76090;-38
2023/11/02 11:22:30;;;;;;;2.60;1.90;;;;;;;20.46;60.88;97277.67;105760;1282;67110;-40
2023/11/02 11:25:03;;;;;;;6.10;2.40;;;;;;;20.49;60.74;97273.19;103398;1280;73461;-39
2023/11/02 11:27:35;;;;;;;5.00;2.10;;;;;;;20.49;60.61;97266.27;103451;1282;62845;-38
2023/11/02 11:30:05;;;;;;;5.20;1.50;;;;;;;20.47;60.63;97256.30;103705;1280;62153;-38
2023/11/02 11:32:34;;;;;;;7.10;1.70;;;;;;;20.46;60.38;97253.80;105115;1282;77034;-37
2023/11/02 11:35:04;;;;;;;6.30;1.80;;;;;;;20.46;60.42;97252.25;105713;1282;66948;-40
2023/11/02 11:37:47;;;;;;;3.40;1.70;;;;;;;20.46;60.35;97249.84;104340;1280;72508;-40
2023/11/02 11:40:20;;;;;;;5.50;1.80;;;;;;;20.49;60.47;97245.98;103158;1280;63516;-42